Time;durP1;ratioP1;P1;durP2;ratioP2;P2;SDS_P1;SDS_P2;PMS_P1;PMS_P2;Temp;Humidity;BMP_temperature;BMP_pressure;BME280_temperature;BME280_humidity;BME280_pressure;Samples;Min_cycle;Max_cycle;Signal;HPM_P1;HPM_P2
2021/08/19 00:00:53;;;;;;;21.07;19.27;;;;;;;12.94;100.00;98861.81;2097450;28;20609;-73
2021/08/19 00:01:54;;;;;;;21.10;19.25;;;;;;;12.97;100.00;98857.72;2097388;28;20383;-73
2021/08/19 00:02:56;;;;;;;20.83;19.13;;;;;;;12.96;100.00;98851.56;2096639;28;20242;-73
2021/08/19 00:03:56;;;;;;;21.77;19.85;;;;;;;12.95;100.00;98858.03;2096768;28;20775;-73
2021/08/19 00:04:58;;;;;;;21.70;19.87;;;;;;;12.99;100.00;98858.19;2097567;28;20591;-73
2021/08/19 00:06:01;;;;;;;21.73;20.00;;;;;;;12.99;100.00;98863.53;2097462;28;20242;-73
2021/08/19 00:07:02;;;;;;;21.17;19.38;;;;;;;12.98;100.00;98859.28;2096707;28;20226;-73
2021/08/19 00:08:04;;;;;;;22.13;20.27;;;;;;;12.99;100.00;98858.97;2096692;28;20238;-73
2021/08/19 00:09:05;;;;;;;21.55;19.48;;;;;;;12.97;100.00;98858.50;2096657;28;20233;-73
2021/08/19 00:10:10;;;;;;;21.13;19.30;;;;;;;12.97;100.00;98858.50;2096720;28;20225;-73
2021/08/19 00:11:12;;;;;;;21.17;19.38;;;;;;;12.99;100.00;98853.59;2092794;28;20226;-73
2021/08/19 00:12:13;;;;;;;21.48;19.65;;;;;;;12.99;100.00;98855.50;2097438;28;20214;-73
2021/08/19 00:13:14;;;;;;;22.03;20.13;;;;;;;12.98;100.00;98857.38;2097465;28;20228;-73
2021/08/19 00:14:15;;;;;;;21.35;19.55;;;;;;;13.01;100.00;98851.41;2096606;28;20676;-73
2021/08/19 00:15:17;;;;;;;21.23;19.63;;;;;;;13.01;100.00;98862.09;2088344;28;20611;-73
2021/08/19 00:16:18;;;;;;;21.73;19.83;;;;;;;13.01;100.00;98854.06;2096769;28;20305;-73
2021/08/19 00:17:19;;;;;;;21.47;19.77;;;;;;;13.02;100.00;98854.84;2097326;28;20225;-73
2021/08/19 00:18:20;;;;;;;21.08;19.33;;;;;;;13.00;100.00;98862.44;2097399;28;20308;-73
2021/08/19 00:19:21;;;;;;;21.73;19.93;;;;;;;12.98;100.00;98854.72;2096509;28;20210;-73
2021/08/19 00:20:23;;;;;;;21.08;19.17;;;;;;;13.02;100.00;98857.53;2096376;28;20252;-74
2021/08/19 00:21:26;;;;;;;21.00;19.30;;;;;;;13.00;100.00;98855.19;2097395;28;20685;-73
2021/08/19 00:22:29;;;;;;;21.08;19.40;;;;;;;13.02;100.00;98852.97;2096105;28;20260;-73
2021/08/19 00:23:31;;;;;;;22.00;19.98;;;;;;;13.01;100.00;98851.41;2096653;28;20662;-73
2021/08/19 00:24:32;;;;;;;21.30;19.55;;;;;;;13.01;100.00;98856.75;2097427;28;20218;-73
2021/08/19 00:25:36;;;;;;;21.70;19.90;;;;;;;13.01;100.00;98848.72;2097357;28;20225;-73
2021/08/19 00:26:36;;;;;;;21.33;19.48;;;;;;;12.99;100.00;98850.94;2096836;28;20593;-74
2021/08/19 00:27:39;;;;;;;21.52;19.80;;;;;;;13.00;100.00;98844.47;2096305;28;20646;-73
2021/08/19 00:28:39;;;;;;;22.08;19.98;;;;;;;13.00;100.00;98849.03;2096618;28;20270;-73
2021/08/19 00:29:41;;;;;;;21.93;19.93;;;;;;;12.98;100.00;98845.91;2097289;28;20283;-73
2021/08/19 00:30:42;;;;;;;21.70;19.65;;;;;;;12.96;100.00;98848.91;2097294;28;20242;-73
2021/08/19 00:31:43;;;;;;;21.67;19.73;;;;;;;12.95;100.00;98847.31;2097381;28;20225;-73
2021/08/19 00:32:45;;;;;;;21.52;19.42;;;;;;;12.98;100.00;98845.91;2096346;28;20310;-73
2021/08/19 00:33:46;;;;;;;20.95;19.25;;;;;;;12.97;100.00;98845.09;2096487;28;20251;-73
2021/08/19 00:34:47;;;;;;;20.77;18.95;;;;;;;12.95;100.00;98844.66;2096679;28;20245;-73
2021/08/19 00:35:48;;;;;;;21.67;19.77;;;;;;;12.95;100.00;98846.53;2096083;28;20218;-73
2021/08/19 00:36:53;;;;;;;20.83;19.02;;;;;;;12.94;100.00;98845.75;2096485;28;20269;-73
2021/08/19 00:37:54;;;;;;;20.58;18.88;;;;;;;12.93;100.00;98846.81;2088171;28;20292;-73
2021/08/19 00:38:56;;;;;;;20.20;18.40;;;;;;;12.91;100.00;98838.34;2096317;28;20230;-73
2021/08/19 00:39:57;;;;;;;21.13;19.45;;;;;;;12.90;100.00;98849.38;2096014;28;20249;-73
2021/08/19 00:40:58;;;;;;;21.87;19.90;;;;;;;12.90;100.00;98850.16;2097120;28;20217;-73
2021/08/19 00:41:59;;;;;;;21.40;19.65;;;;;;;12.88;100.00;98841.66;2097004;28;20271;-73
2021/08/19 00:43:02;;;;;;;20.50;18.80;;;;;;;12.88;100.00;98841.66;2097198;28;20271;-73
2021/08/19 00:44:04;;;;;;;21.73;19.58;;;;;;;12.89;100.00;98843.22;2097155;28;20241;-73
2021/08/19 00:45:08;;;;;;;21.65;19.50;;;;;;;12.88;100.00;98846.22;2097166;28;20625;-73
2021/08/19 00:46:29;;;;;;;20.88;19.08;;;;;;;12.92;100.00;98847.16;2096842;28;20260;-73
2021/08/19 00:47:30;;;;;;;20.70;18.88;;;;;;;12.92;100.00;98847.16;2096826;28;20221;-73
2021/08/19 00:48:35;;;;;;;21.23;19.40;;;;;;;12.92;100.00;98849.81;2096194;28;20710;-73
2021/08/19 00:49:36;;;;;;;20.92;19.20;;;;;;;12.96;100.00;98851.56;2096403;28;20237;-73
2021/08/19 00:50:38;;;;;;;20.92;19.00;;;;;;;13.03;100.00;98851.09;2096786;28;20295;-75
2021/08/19 00:51:40;;;;;;;20.63;18.48;;;;;;;13.05;100.00;98851.56;2097070;28;20302;-73
2021/08/19 00:52:43;;;;;;;21.13;19.27;;;;;;;13.06;100.00;98857.72;2097120;28;20309;-72
2021/08/19 00:53:44;;;;;;;20.33;18.52;;;;;;;13.07;100.00;98859.28;2097165;28;20312;-73
2021/08/19 00:54:45;;;;;;;21.60;19.90;;;;;;;13.06;100.00;98860.38;2097197;28;20225;-73
2021/08/19 00:55:49;;;;;;;21.98;20.17;;;;;;;13.05;100.00;98858.81;2096248;28;20733;-73
2021/08/19 00:56:52;;;;;;;21.60;19.70;;;;;;;13.04;100.00;98857.25;2096430;28;20225;-73
2021/08/19 00:57:54;;;;;;;21.00;19.13;;;;;;;13.02;100.00;98855.63;2096587;28;20313;-73
2021/08/19 00:58:57;;;;;;;21.25;19.45;;;;;;;13.03;100.00;98859.13;2097052;28;20637;-73
2021/08/19 00:59:59;;;;;;;20.13;18.63;;;;;;;13.05;100.00;98858.81;2097126;28;20226;-73
2021/08/19 01:01:01;;;;;;;20.13;18.30;;;;;;;13.00;100.00;98857.84;2097015;28;20226;-73
2021/08/19 01:02:02;;;;;;;21.05;19.40;;;;;;;13.10;100.00;98855.94;2097046;28;20676;-73
2021/08/19 01:03:04;;;;;;;21.40;19.38;;;;;;;13.04;100.00;98854.56;2097007;28;20279;-73
2021/08/19 01:04:05;;;;;;;20.98;18.95;;;;;;;12.98;100.00;98852.03;2096974;28;20225;-73
2021/08/19 01:05:09;;;;;;;20.20;18.40;;;;;;;12.95;100.00;98852.69;2096642;28;20653;-74
2021/08/19 01:06:09;;;;;;;21.50;19.70;;;;;;;12.92;100.00;98853.28;2097180;28;20249;-73
2021/08/19 01:07:12;;;;;;;22.00;20.00;;;;;;;12.91;100.00;98850.94;2097137;28;20226;-73
2021/08/19 01:08:14;;;;;;;21.08;19.30;;;;;;;12.89;100.00;98864.66;2097001;28;20222;-73
2021/08/19 01:09:17;;;;;;;20.90;19.08;;;;;;;12.88;100.00;98860.41;2097085;28;20704;-73
2021/08/19 01:10:18;;;;;;;20.45;18.85;;;;;;;12.86;100.00;98865.28;2096946;28;20356;-73
2021/08/19 01:11:20;;;;;;;20.30;18.63;;;;;;;12.86;100.00;98856.47;2097102;28;20226;-73
2021/08/19 01:12:21;;;;;;;20.38;18.70;;;;;;;12.84;100.00;98862.13;2097121;28;20222;-73
2021/08/19 01:13:23;;;;;;;20.73;19.13;;;;;;;12.82;100.00;98864.31;2096696;28;20305;-74
2021/08/19 01:14:23;;;;;;;20.98;19.35;;;;;;;12.86;100.00;98862.59;2096995;28;20716;-73
2021/08/19 01:15:25;;;;;;;21.37;19.47;;;;;;;12.84;100.00;98862.13;2097052;28;20563;-73
2021/08/19 01:16:28;;;;;;;20.75;19.02;;;;;;;12.82;100.00;98858.97;2097051;28;20253;-73
2021/08/19 01:17:30;;;;;;;20.20;18.60;;;;;;;12.81;100.00;98860.06;2096133;28;20214;-73
2021/08/19 01:18:43;;;;;;;20.50;18.77;;;;;;;12.80;100.00;98861.19;2096342;28;20620;-73
2021/08/19 01:19:45;;;;;;;21.05;19.25;;;;;;;12.78;100.00;98866.06;2095632;28;20276;-73
2021/08/19 01:20:47;;;;;;;20.83;19.13;;;;;;;12.77;100.00;98861.81;2096254;28;20214;-73
2021/08/19 01:21:49;;;;;;;20.67;18.88;;;;;;;12.75;100.00;98858.66;2096282;28;20320;-73
2021/08/19 01:22:51;;;;;;;20.80;19.00;;;;;;;12.77;100.00;98861.81;2096197;28;20299;-73
2021/08/19 01:23:53;;;;;;;21.42;19.63;;;;;;;12.74;100.00;98863.22;2087400;28;20269;-73
2021/08/19 01:24:55;;;;;;;21.35;19.40;;;;;;;12.70;100.00;98864.97;2096130;28;20229;-73
2021/08/19 01:25:55;;;;;;;20.98;18.98;;;;;;;12.70;100.00;98861.50;2096065;28;20273;-73
2021/08/19 01:26:58;;;;;;;20.87;18.97;;;;;;;12.69;100.00;98863.38;2096270;28;20335;-73
2021/08/19 01:27:59;;;;;;;20.90;19.10;;;;;;;12.67;100.00;98860.22;2095988;28;20263;-73
2021/08/19 01:29:04;;;;;;;21.10;19.20;;;;;;;12.66;100.00;98864.00;2096238;28;20218;-73
2021/08/19 01:30:06;;;;;;;20.52;18.83;;;;;;;12.69;100.00;98857.25;2096216;28;20696;-73
2021/08/19 01:31:08;;;;;;;21.48;19.58;;;;;;;12.67;100.00;98862.09;2095912;28;20336;-74
2021/08/19 01:32:10;;;;;;;20.50;18.77;;;;;;;12.65;100.00;98858.97;2096992;28;20264;-73
2021/08/19 01:33:12;;;;;;;20.92;19.33;;;;;;;12.63;100.00;98861.97;2096809;28;20226;-73
2021/08/19 01:34:12;;;;;;;20.42;18.83;;;;;;;12.60;100.00;98862.59;2096033;28;20218;-73
2021/08/19 01:35:20;;;;;;;20.90;19.20;;;;;;;12.58;100.00;98861.31;2096157;28;20222;-73
2021/08/19 01:36:20;;;;;;;21.02;18.90;;;;;;;12.56;100.00;98850.94;2096270;28;20622;-73
2021/08/19 01:37:22;;;;;;;20.70;18.97;;;;;;;12.55;100.00;98849.34;2096991;28;20226;-73
2021/08/19 01:38:29;;;;;;;20.80;19.20;;;;;;;12.56;100.00;98847.47;2095693;28;20230;-73
2021/08/19 01:39:30;;;;;;;21.35;19.55;;;;;;;12.55;100.00;98857.38;2081272;28;20226;-73
2021/08/19 01:40:31;;;;;;;20.58;18.88;;;;;;;12.52;100.00;98855.34;2095392;28;20268;-73
2021/08/19 01:41:33;;;;;;;20.07;18.50;;;;;;;12.51;100.00;98855.63;2096910;28;20248;-73
2021/08/19 01:42:34;;;;;;;20.90;18.90;;;;;;;12.47;100.00;98852.81;2096985;28;20252;-73
2021/08/19 01:43:37;;;;;;;20.48;18.67;;;;;;;12.45;100.00;98853.13;2096130;28;20222;-73
2021/08/19 01:44:40;;;;;;;20.52;18.80;;;;;;;12.43;100.00;98849.19;2095816;28;20238;-73
2021/08/19 01:45:41;;;;;;;21.13;19.33;;;;;;;12.41;100.00;98854.84;2096988;28;20571;-73
2021/08/19 01:46:42;;;;;;;20.77;19.07;;;;;;;12.37;100.00;98848.56;2096446;28;20317;-73
2021/08/19 01:47:45;;;;;;;20.77;19.08;;;;;;;12.35;100.00;98845.41;2096438;28;20222;-73
2021/08/19 01:48:47;;;;;;;21.15;19.00;;;;;;;12.34;100.00;98851.84;2098544;28;20229;-73
2021/08/19 01:49:47;;;;;;;21.55;19.55;;;;;;;12.33;100.00;98852.16;2098600;28;20746;-73
2021/08/19 01:50:49;;;;;;;21.03;19.03;;;;;;;12.31;100.00;98849.78;2097807;28;20611;-73
2021/08/19 01:51:50;;;;;;;20.35;18.63;;;;;;;12.30;100.00;98842.09;2097893;28;20313;-73
2021/08/19 01:52:52;;;;;;;20.77;18.98;;;;;;;12.30;100.00;98850.91;2097746;28;20221;-73
2021/08/19 01:53:53;;;;;;;20.40;18.88;;;;;;;12.31;100.00;98849.00;2095630;28;20704;-73
2021/08/19 01:54:54;;;;;;;20.97;19.13;;;;;;;12.32;100.00;98846.00;2098437;28;20624;-73
2021/08/19 01:55:55;;;;;;;20.58;18.88;;;;;;;12.30;100.00;98845.53;2097641;28;20249;-73
2021/08/19 01:56:57;;;;;;;20.77;19.00;;;;;;;12.25;100.00;98851.06;2097879;28;20230;-73
2021/08/19 01:57:57;;;;;;;21.23;19.23;;;;;;;12.22;100.00;98846.31;2097745;28;20213;-73
2021/08/19 01:59:00;;;;;;;20.07;18.30;;;;;;;12.16;100.00;98851.03;2097963;28;20226;-73
2021/08/19 02:00:03;;;;;;;20.00;18.20;;;;;;;12.13;100.00;98848.19;2097614;28;20225;-73
2021/08/19 02:01:10;;;;;;;20.42;18.65;;;;;;;12.11;100.00;98855.72;2097362;28;20226;-73
2021/08/19 02:02:11;;;;;;;19.67;18.08;;;;;;;12.10;100.00;98854.16;2098539;28;20327;-73
2021/08/19 02:03:13;;;;;;;19.47;17.97;;;;;;;12.11;100.00;98855.72;2098569;28;20230;-73
2021/08/19 02:04:13;;;;;;;20.40;18.75;;;;;;;12.10;100.00;98848.81;2098408;28;20571;-73
2021/08/19 02:05:15;;;;;;;20.00;18.40;;;;;;;12.12;100.00;98857.31;2098503;28;20222;-73
2021/08/19 02:06:16;;;;;;;20.23;18.70;;;;;;;12.17;100.00;98854.50;2098380;28;20249;-73
2021/08/19 02:07:17;;;;;;;20.00;18.50;;;;;;;12.18;100.00;98852.63;2098533;28;20243;-73
2021/08/19 02:08:18;;;;;;;20.45;18.85;;;;;;;12.20;100.00;98853.09;2097398;28;20328;-73
2021/08/19 02:09:20;;;;;;;20.50;18.73;;;;;;;12.22;100.00;98846.31;2097709;28;20218;-73
2021/08/19 02:10:21;;;;;;;20.27;18.63;;;;;;;12.24;100.00;98848.66;2098226;28;20218;-73
2021/08/19 02:11:24;;;;;;;20.73;18.83;;;;;;;12.27;100.00;98854.19;2098062;28;20305;-73
2021/08/19 02:12:25;;;;;;;21.33;19.13;;;;;;;12.26;100.00;98846.50;2098314;28;20322;-73
2021/08/19 02:13:26;;;;;;;20.55;18.85;;;;;;;12.29;100.00;98849.31;2098370;28;20308;-73
2021/08/19 02:14:29;;;;;;;19.92;18.30;;;;;;;12.28;100.00;98847.75;2098319;28;20230;-73
2021/08/19 02:15:30;;;;;;;19.80;18.10;;;;;;;12.28;100.00;98847.75;2098398;28;20226;-73
2021/08/19 02:16:32;;;;;;;19.77;18.00;;;;;;;12.30;100.00;98852.78;2097785;28;20233;-73
2021/08/19 02:17:32;;;;;;;19.95;18.30;;;;;;;12.28;100.00;98842.41;2097616;28;20563;-73
2021/08/19 02:18:34;;;;;;;20.20;18.60;;;;;;;12.30;100.00;98850.09;2097580;28;20244;-73
2021/08/19 02:19:34;;;;;;;21.00;19.20;;;;;;;12.30;100.00;98847.44;2097774;28;20245;-73
2021/08/19 02:20:36;;;;;;;20.50;18.80;;;;;;;12.26;100.00;98846.50;2098396;28;20226;-73
2021/08/19 02:21:37;;;;;;;20.60;18.90;;;;;;;12.27;100.00;98848.06;2097983;28;20564;-74
2021/08/19 02:22:39;;;;;;;20.50;18.80;;;;;;;12.24;100.00;98843.31;2098353;28;20245;-73
2021/08/19 02:23:40;;;;;;;20.02;18.42;;;;;;;12.20;100.00;98842.38;2098231;28;20229;-73
2021/08/19 02:24:41;;;;;;;20.77;19.07;;;;;;;12.19;100.00;98857.66;2098261;28;20253;-73
2021/08/19 02:25:42;;;;;;;20.50;18.80;;;;;;;12.14;100.00;98844.41;2098247;28;20230;-73
2021/08/19 02:26:43;;;;;;;20.23;18.57;;;;;;;12.13;100.00;98856.22;2098233;28;20218;-73
2021/08/19 02:27:45;;;;;;;19.98;18.40;;;;;;;12.12;100.00;98849.28;2098472;28;20217;-73
2021/08/19 02:28:47;;;;;;;21.17;19.10;;;;;;;12.08;100.00;98851.03;2097499;28;20304;-73
2021/08/19 02:29:50;;;;;;;20.30;18.70;;;;;;;12.06;100.00;98847.84;2097597;28;20675;-73
2021/08/19 02:30:51;;;;;;;21.85;19.65;;;;;;;12.07;100.00;98846.75;2098222;28;20222;-73
2021/08/19 02:31:52;;;;;;;22.25;20.20;;;;;;;12.05;100.00;98854.28;2097120;28;20308;-74
2021/08/19 02:32:55;;;;;;;21.50;19.60;;;;;;;12.02;100.00;98846.91;2097493;28;20280;-73
2021/08/19 02:33:59;;;;;;;20.15;18.55;;;;;;;11.99;100.00;98852.84;2098311;28;20226;-73
2021/08/19 02:34:59;;;;;;;21.23;19.20;;;;;;;11.95;100.00;98855.38;2098347;28;20222;-73
2021/08/19 02:36:01;;;;;;;20.47;18.70;;;;;;;11.90;100.00;98850.16;2098156;28;20227;-73
2021/08/19 02:37:02;;;;;;;21.23;19.42;;;;;;;11.89;100.00;98853.91;2098342;28;20646;-73
2021/08/19 02:38:06;;;;;;;20.90;19.17;;;;;;;11.80;100.00;98853.88;2098357;28;20241;-73
2021/08/19 02:39:07;;;;;;;21.02;19.13;;;;;;;11.78;100.00;98857.94;2097379;28;20703;-74
2021/08/19 02:40:09;;;;;;;21.38;19.25;;;;;;;11.73;100.00;98861.56;2097485;28;20253;-74
2021/08/19 02:41:10;;;;;;;19.85;18.25;;;;;;;11.68;100.00;98858.22;2097345;28;20229;-73
2021/08/19 02:42:11;;;;;;;21.30;19.55;;;;;;;11.65;100.00;98866.88;2098055;28;20245;-73
2021/08/19 02:43:12;;;;;;;20.33;18.60;;;;;;;11.60;100.00;98857.09;2098460;28;20230;-73
2021/08/19 02:44:13;;;;;;;20.50;18.70;;;;;;;11.56;100.00;98862.25;2098166;28;20744;-73
2021/08/19 02:45:16;;;;;;;20.93;19.17;;;;;;;11.56;100.00;98856.13;2098143;28;20573;-73
2021/08/19 02:46:17;;;;;;;20.83;19.08;;;;;;;11.53;100.00;98859.41;2098097;28;20300;-73
2021/08/19 02:47:18;;;;;;;21.03;19.23;;;;;;;11.53;100.00;98862.84;2097591;28;20230;-73
2021/08/19 02:48:19;;;;;;;21.40;19.55;;;;;;;11.53;100.00;98868.19;2097562;28;20240;-73
2021/08/19 02:49:21;;;;;;;21.00;19.20;;;;;;;11.52;100.00;98866.63;2098115;28;20227;-73
2021/08/19 02:50:23;;;;;;;20.55;18.75;;;;;;;11.52;100.00;98863.16;2096909;28;20641;-75
2021/08/19 02:51:24;;;;;;;21.27;19.45;;;;;;;11.59;100.00;98861.63;2097463;28;20260;-73
2021/08/19 02:52:25;;;;;;;20.60;18.90;;;;;;;11.63;100.00;98859.13;2097209;28;20218;-73
2021/08/19 02:53:27;;;;;;;20.10;18.50;;;;;;;11.61;100.00;98864.00;2097355;28;20224;-73
2021/08/19 02:54:28;;;;;;;20.25;18.65;;;;;;;11.56;100.00;98861.47;2097268;28;20969;-73
2021/08/19 02:55:29;;;;;;;20.33;18.15;;;;;;;11.52;100.00;98855.16;2097575;28;20234;-73
2021/08/19 02:56:31;;;;;;;20.08;18.38;;;;;;;11.52;100.00;98855.94;2097378;28;20226;-73
2021/08/19 02:57:32;;;;;;;19.75;18.15;;;;;;;11.53;100.00;98862.06;2098184;28;20225;-73
2021/08/19 02:58:33;;;;;;;19.67;18.07;;;;;;;11.61;100.00;98859.44;2096809;28;20741;-73
2021/08/19 02:59:34;;;;;;;20.00;18.30;;;;;;;11.60;100.00;98857.09;2097261;28;20283;-73
2021/08/19 03:00:39;;;;;;;21.00;18.75;;;;;;;11.62;100.00;98860.22;2084731;28;20232;-74
2021/08/19 03:01:39;;;;;;;19.88;18.27;;;;;;;11.58;100.00;98856.59;2095596;28;20253;-73
2021/08/19 03:02:41;;;;;;;20.40;18.57;;;;;;;11.57;100.00;98855.81;2097986;28;20225;-73
2021/08/19 03:03:41;;;;;;;21.55;19.63;;;;;;;11.54;100.00;98861.75;2097973;28;20735;-74
2021/08/19 03:04:43;;;;;;;19.77;18.17;;;;;;;11.51;100.00;98858.91;2098094;28;20229;-73
2021/08/19 03:05:44;;;;;;;20.13;18.48;;;;;;;11.50;100.00;98862.69;2097976;28;20279;-73
2021/08/19 03:06:46;;;;;;;20.95;19.02;;;;;;;11.47;100.00;98857.97;2098020;28;20230;-73
2021/08/19 03:07:46;;;;;;;20.23;18.52;;;;;;;11.41;100.00;98859.19;2097102;28;20328;-73
2021/08/19 03:08:48;;;;;;;21.48;19.48;;;;;;;11.40;100.00;98858.41;2086821;28;20243;-73
2021/08/19 03:09:49;;;;;;;20.30;18.50;;;;;;;11.37;100.00;98859.00;2097258;28;20222;-73
2021/08/19 03:10:51;;;;;;;19.43;17.67;;;;;;;11.33;100.00;98858.81;2097968;28;20224;-73
2021/08/19 03:11:51;;;;;;;19.75;18.05;;;;;;;11.30;100.00;98864.00;2094838;28;20226;-74
2021/08/19 03:12:53;;;;;;;20.67;18.57;;;;;;;11.24;100.00;98855.31;2097185;28;20359;-74
2021/08/19 03:13:56;;;;;;;20.05;18.35;;;;;;;11.21;100.00;98861.28;2097831;28;20237;-73
2021/08/19 03:14:56;;;;;;;20.23;18.50;;;;;;;11.18;100.00;98855.75;2097913;28;20300;-73
2021/08/19 03:15:59;;;;;;;20.30;18.40;;;;;;;11.17;100.00;98860.28;2097818;28;20238;-73
2021/08/19 03:17:00;;;;;;;20.08;18.38;;;;;;;11.13;100.00;98858.56;2096762;28;20305;-73
2021/08/19 03:18:01;;;;;;;20.77;18.97;;;;;;;11.13;100.00;98862.00;2097154;28;20224;-73
2021/08/19 03:19:03;;;;;;;20.40;18.60;;;;;;;11.10;100.00;98862.59;2097034;28;20221;-73
2021/08/19 03:20:07;;;;;;;20.90;19.10;;;;;;;11.08;100.00;98861.34;2088844;28;20268;-73
2021/08/19 03:21:08;;;;;;;20.98;19.00;;;;;;;11.09;100.00;98868.25;2096876;28;20752;-73
2021/08/19 03:22:10;;;;;;;21.37;19.37;;;;;;;11.07;100.00;98857.88;2097827;28;20572;-73
2021/08/19 03:23:10;;;;;;;19.77;18.05;;;;;;;11.05;100.00;98865.41;2097838;28;20237;-73
2021/08/19 03:24:13;;;;;;;19.97;18.47;;;;;;;11.04;100.00;98861.16;2097310;28;21789;-73
2021/08/19 03:25:14;;;;;;;19.67;17.98;;;;;;;11.06;100.00;98868.88;2097141;28;20221;-73
2021/08/19 03:26:16;;;;;;;19.63;17.83;;;;;;;11.03;100.00;98870.25;2097882;28;20669;-73
2021/08/19 03:27:16;;;;;;;19.65;18.02;;;;;;;11.01;100.00;98862.53;2097784;28;20299;-73
2021/08/19 03:28:20;;;;;;;19.90;18.17;;;;;;;10.97;100.00;98872.25;2097839;28;20225;-73
2021/08/19 03:29:23;;;;;;;20.05;18.35;;;;;;;10.95;100.00;98860.31;2096476;28;20363;-73
2021/08/19 03:30:25;;;;;;;20.63;18.80;;;;;;;10.93;100.00;98870.47;2097074;28;20229;-73
2021/08/19 03:31:27;;;;;;;20.30;18.60;;;;;;;10.90;100.00;98871.09;2096919;28;20312;-73
2021/08/19 03:32:28;;;;;;;19.75;18.15;;;;;;;10.86;100.00;98868.25;2097020;28;20214;-73
2021/08/19 03:33:30;;;;;;;20.67;18.67;;;;;;;10.84;100.00;98869.63;2097096;28;20261;-73
2021/08/19 03:34:32;;;;;;;19.90;18.10;;;;;;;10.81;100.00;98863.03;2086542;28;20716;-73
2021/08/19 03:35:35;;;;;;;20.27;18.65;;;;;;;10.81;100.00;98864.91;2094804;28;20248;-73
2021/08/19 03:36:38;;;;;;;19.97;18.07;;;;;;;10.81;100.00;98878.25;2097744;28;20681;-73
2021/08/19 03:37:40;;;;;;;20.38;18.75;;;;;;;10.76;100.00;98877.25;2097248;28;20577;-73
2021/08/19 03:38:42;;;;;;;21.27;19.33;;;;;;;10.78;100.00;98868.97;2097042;28;20296;-73
2021/08/19 03:39:43;;;;;;;20.90;19.15;;;;;;;10.78;100.00;98876.19;2096711;28;20226;-73
2021/08/19 03:40:45;;;;;;;20.73;18.83;;;;;;;10.78;100.00;98874.31;2097706;28;20222;-73
2021/08/19 03:41:46;;;;;;;21.17;18.85;;;;;;;10.83;100.00;98876.06;2097723;28;20672;-73
2021/08/19 03:42:48;;;;;;;20.48;18.75;;;;;;;10.84;100.00;98878.41;2097657;28;20229;-73
2021/08/19 03:43:48;;;;;;;20.55;18.75;;;;;;;10.87;100.00;98877.06;2097657;28;20214;-73
2021/08/19 03:44:50;;;;;;;21.00;19.07;;;;;;;10.92;100.00;98876.91;2097742;28;20214;-73
2021/08/19 03:45:51;;;;;;;21.08;18.85;;;;;;;10.96;100.00;98869.91;2097635;28;20587;-73
2021/08/19 03:46:54;;;;;;;22.07;20.10;;;;;;;10.95;100.00;98876.31;2097357;28;20222;-74
2021/08/19 03:47:55;;;;;;;21.17;19.27;;;;;;;10.96;100.00;98876.03;2097576;28;20229;-73
2021/08/19 03:48:57;;;;;;;21.70;19.58;;;;;;;10.98;100.00;98875.72;2096929;28;20292;-73
2021/08/19 03:49:58;;;;;;;21.65;19.75;;;;;;;10.97;100.00;98866.13;2096873;28;20232;-74
2021/08/19 03:50:59;;;;;;;21.08;19.15;;;;;;;11.01;100.00;98872.44;2097567;28;20222;-73
2021/08/19 03:52:01;;;;;;;20.80;18.93;;;;;;;11.00;100.00;98870.84;2097539;28;20226;-73
2021/08/19 03:53:02;;;;;;;20.85;18.95;;;;;;;10.99;100.00;98870.06;2096722;28;20479;-73
2021/08/19 03:54:03;;;;;;;21.33;19.43;;;;;;;11.02;100.00;98871.34;2080813;28;20713;-73
2021/08/19 03:55:06;;;;;;;20.95;18.92;;;;;;;11.02;100.00;98874.00;2096601;28;20763;-73
2021/08/19 03:56:07;;;;;;;21.00;19.08;;;;;;;11.01;100.00;98875.88;2095123;28;20226;-74
2021/08/19 03:57:09;;;;;;;22.80;20.42;;;;;;;11.01;100.00;98867.09;2097524;28;20242;-73
2021/08/19 03:58:10;;;;;;;21.63;19.52;;;;;;;11.02;100.00;98879.34;2097535;28;20313;-73
2021/08/19 03:59:11;;;;;;;21.35;19.30;;;;;;;11.00;100.00;98862.84;2097410;28;20226;-73
2021/08/19 04:00:13;;;;;;;21.50;19.30;;;;;;;10.99;100.00;98870.06;2096210;28;20230;-73
2021/08/19 04:01:14;;;;;;;22.10;20.00;;;;;;;10.97;100.00;98866.13;2096584;28;20230;-73
2021/08/19 04:02:17;;;;;;;21.17;19.13;;;;;;;10.95;100.00;98871.78;2097534;28;20218;-73
2021/08/19 04:03:18;;;;;;;22.20;20.20;;;;;;;10.93;100.00;98859.81;2097485;28;20723;-73
2021/08/19 04:04:20;;;;;;;23.55;20.23;;;;;;;10.93;100.00;98873.94;2097605;28;20305;-73
2021/08/19 04:05:21;;;;;;;20.55;18.55;;;;;;;10.93;100.00;98870.47;2097479;28;20253;-73
2021/08/19 04:06:22;;;;;;;20.63;18.57;;;;;;;10.91;100.00;98867.34;2097133;28;20222;-74
2021/08/19 04:07:23;;;;;;;20.63;18.77;;;;;;;10.91;100.00;98870.00;2097450;28;20242;-73
2021/08/19 04:08:24;;;;;;;21.27;19.07;;;;;;;10.90;100.00;98865.75;2097457;28;20218;-73
2021/08/19 04:09:25;;;;;;;20.58;18.60;;;;;;;10.92;100.00;98871.56;2096449;28;20256;-73
2021/08/19 04:10:27;;;;;;;20.17;18.30;;;;;;;10.90;100.00;98871.09;2096011;28;20230;-73
2021/08/19 04:11:27;;;;;;;20.20;18.35;;;;;;;10.90;100.00;98873.75;2096465;28;20395;-73
2021/08/19 04:12:29;;;;;;;19.87;17.83;;;;;;;10.87;100.00;98866.38;2088449;28;20227;-73
2021/08/19 04:13:30;;;;;;;18.85;17.35;;;;;;;10.89;100.00;98874.84;2096642;28;20309;-73
2021/08/19 04:14:32;;;;;;;20.23;18.23;;;;;;;10.87;100.00;98872.50;2097454;28;20229;-73
2021/08/19 04:15:33;;;;;;;20.30;18.27;;;;;;;10.87;100.00;98869.03;2096573;28;20225;-73
2021/08/19 04:16:35;;;;;;;19.83;18.03;;;;;;;10.86;100.00;98864.78;2096752;28;20222;-73
2021/08/19 04:17:38;;;;;;;20.63;18.58;;;;;;;10.86;100.00;98867.44;2097391;28;20221;-73
2021/08/19 04:18:42;;;;;;;19.85;18.10;;;;;;;10.87;100.00;98867.16;2096144;28;20321;-73
2021/08/19 04:19:43;;;;;;;20.52;18.83;;;;;;;10.88;100.00;98870.63;2088352;28;20305;-74
2021/08/19 04:20:47;;;;;;;19.60;18.05;;;;;;;10.89;100.00;98869.53;2088694;28;20238;-73
2021/08/19 04:21:49;;;;;;;20.58;18.55;;;;;;;10.89;100.00;98869.53;2096620;28;20733;-73
2021/08/19 04:22:54;;;;;;;20.00;18.20;;;;;;;10.93;100.00;98878.50;2096102;28;20234;-73
2021/08/19 04:23:55;;;;;;;20.60;18.80;;;;;;;10.93;100.00;98881.94;2088289;28;20776;-73
2021/08/19 04:24:56;;;;;;;20.05;18.25;;;;;;;10.97;100.00;98876.81;2096592;28;20582;-73
2021/08/19 04:25:59;;;;;;;19.63;17.83;;;;;;;10.99;100.00;98875.41;2097356;28;20687;-73
2021/08/19 04:27:00;;;;;;;19.90;17.98;;;;;;;11.02;100.00;98879.34;2096868;28;20296;-73
2021/08/19 04:28:01;;;;;;;20.17;18.30;;;;;;;11.03;100.00;98879.06;2096888;28;20214;-73
2021/08/19 04:29:02;;;;;;;19.65;17.80;;;;;;;11.07;100.00;98881.91;2096538;28;20226;-73
2021/08/19 04:30:04;;;;;;;19.93;18.03;;;;;;;11.08;100.00;98878.13;2097283;28;20267;-73
2021/08/19 04:31:05;;;;;;;20.20;18.10;;;;;;;11.12;100.00;98879.13;2097413;28;20253;-73
2021/08/19 04:32:31;;;;;;;19.58;17.67;;;;;;;11.14;100.00;98876.94;2096577;28;20222;-73
2021/08/19 04:34:00;;;;;;;19.45;17.85;;;;;;;11.16;100.00;98874.75;2095322;28;20245;-73
2021/08/19 04:35:01;;;;;;;19.38;17.67;;;;;;;11.22;100.00;98880.75;2096406;28;20272;-73
2021/08/19 04:36:03;;;;;;;18.93;17.23;;;;;;;11.26;100.00;98877.16;2096598;28;20249;-73
2021/08/19 04:37:03;;;;;;;19.95;18.15;;;;;;;11.32;100.00;98883.19;2096452;28;20218;-73
2021/08/19 04:38:06;;;;;;;19.55;17.85;;;;;;;11.36;100.00;98875.34;2096444;28;20218;-73
2021/08/19 04:39:12;;;;;;;19.23;17.60;;;;;;;11.40;100.00;98870.97;2095081;28;20255;-73
2021/08/19 04:40:13;;;;;;;19.08;17.38;;;;;;;11.46;100.00;98875.06;2088942;28;20214;-73
2021/08/19 04:41:15;;;;;;;19.42;17.75;;;;;;;11.50;100.00;98868.81;2088972;28;20222;-73
2021/08/19 04:42:16;;;;;;;19.98;18.27;;;;;;;11.53;100.00;98873.53;2088842;28;20581;-73